Time,TemperatureF,DewpointF,PressureIn,WindDirection,WindDirectionDegrees,WindSpeedMPH,WindSpeedGustMPH,Humidity,HourlyPrecipIn,Conditions,Clouds,dailyrainin,SoftwareType,DateUTC
2013-09-27 00:01:00,52.7,51.0,30.17,WSW,246,0.0,-999.0,94,-99.99,,,0.00,weatherlink.com 1.10,2013-09-27 04:01:00,
2013-09-27 00:16:00,52.8,51.0,30.18,WSW,246,0.0,-999.0,94,-99.99,,,0.00,weatherlink.com 1.10,2013-09-27 04:16:00,
2013-09-27 00:31:00,52.9,51.0,30.18,WSW,246,0.0,-999.0,94,-99.99,,,0.00,weatherlink.com 1.10,2013-09-27 04:31:00,
2013-09-27 00:46:00,53.0,51.0,30.18,WSW,246,0.0,-999.0,94,-99.99,,,0.00,weatherlink.com 1.10,2013-09-27 04:46:00,
2013-09-27 01:01:00,53.1,52.0,30.19,WSW,246,0.0,-999.0,94,-99.99,,,0.00,weatherlink.com 1.10,2013-09-27 05:01:00,
2013-09-27 01:16:00,53.1,52.0,30.19,WSW,246,0.0,-999.0,94,-99.99,,,0.00,weatherlink.com 1.10,2013-09-27 05:16:00,
2013-09-27 01:31:00,53.1,52.0,30.19,WSW,246,0.0,-999.0,94,-99.99,,,0.00,weatherlink.com 1.10,2013-09-27 05:31:00,
2013-09-27 01:46:00,53.1,52.0,30.19,WSW,246,0.0,-999.0,94,-99.99,,,0.00,weatherlink.com 1.10,2013-09-27 05:46:00,
2013-09-27 02:01:00,53.1,52.0,30.19,WSW,246,0.0,-999.0,94,-99.99,,,0.00,weatherlink.com 1.10,2013-09-27 06:01:00,
2013-09-27 02:16:00,53.1,52.0,30.19,WSW,246,0.0,-999.0,94,-99.99,,,0.00,weatherlink.com 1.10,2013-09-27 06:16:00,
2013-09-27 02:31:00,53.1,52.0,30.19,WSW,246,0.0,-999.0,94,-99.99,,,0.00,weatherlink.com 1.10,2013-09-27 06:31:00,
2013-09-27 02:46:00,53.1,51.0,30.18,WSW,246,0.0,-999.0,93,-99.99,,,0.00,weatherlink.com 1.10,2013-09-27 06:46:00,
2013-09-27 03:01:00,53.1,52.0,30.18,WSW,246,0.0,-999.0,94,-99.99,,,0.00,weatherlink.com 1.10,2013-09-27 07:01:00,
2013-09-27 03:16:00,53.1,52.0,30.18,WSW,246,0.0,-999.0,94,-99.99,,,0.00,weatherlink.com 1.10,2013-09-27 07:16:00,
2013-09-27 03:31:00,53.1,52.0,30.18,WSW,246,0.0,-999.0,94,-99.99,,,0.00,weatherlink.com 1.10,2013-09-27 07:31:00,
2013-09-27 03:46:00,53.1,51.0,30.18,WSW,246,0.0,-999.0,93,-99.99,,,0.00,weatherlink.com 1.10,2013-09-27 07:46:00,
2013-09-27 04:01:00,53.0,51.0,30.18,WSW,246,0.0,-999.0,93,-99.99,,,0.00,weatherlink.com 1.10,2013-09-27 08:01:00,
2013-09-27 04:16:00,53.0,51.0,30.18,WSW,246,0.0,-999.0,93,-99.99,,,0.00,weatherlink.com 1.10,2013-09-27 08:16:00,
2013-09-27 04:31:00,53.0,51.0,30.19,WSW,246,0.0,-999.0,93,-99.99,,,0.00,weatherlink.com 1.10,2013-09-27 08:31:00,
2013-09-27 04:46:00,53.0,51.0,30.19,WSW,246,0.0,-999.0,93,-99.99,,,0.00,weatherlink.com 1.10,2013-09-27 08:46:00,
2013-09-27 05:01:00,52.9,51.0,30.20,WSW,246,0.0,-999.0,94,-99.99,,,0.00,weatherlink.com 1.10,2013-09-27 09:01:00,
2013-09-27 05:16:00,52.9,51.0,30.20,WSW,246,0.0,-999.0,93,-99.99,,,0.00,weatherlink.com 1.10,2013-09-27 09:16:00,
2013-09-27 05:31:00,52.9,51.0,30.20,WSW,246,0.0,-999.0,94,-99.99,,,0.00,weatherlink.com 1.10,2013-09-27 09:31:00,
2013-09-27 05:46:00,52.8,51.0,30.21,WSW,246,0.0,-999.0,94,-99.99,,,0.00,weatherlink.com 1.10,2013-09-27 09:46:00,
2013-09-27 06:01:00,52.9,51.0,30.22,WSW,246,0.0,-999.0,94,-99.99,,,0.00,weatherlink.com 1.10,2013-09-27 10:01:00,
2013-09-27 06:16:00,52.9,51.0,30.22,WSW,246,0.0,-999.0,94,-99.99,,,0.00,weatherlink.com 1.10,2013-09-27 10:16:00,
2013-09-27 06:31:00,52.9,51.0,30.22,WSW,246,0.0,-999.0,94,-99.99,,,0.00,weatherlink.com 1.10,2013-09-27 10:31:00,
2013-09-27 06:47:00,53.1,52.0,30.23,WSW,246,0.0,-999.0,94,-99.99,,,0.00,weatherlink.com 1.10,2013-09-27 10:47:00,
2013-09-27 07:01:00,53.1,52.0,30.23,WSW,246,0.0,-999.0,94,-99.99,,,0.00,weatherlink.com 1.10,2013-09-27 11:01:00,
2013-09-27 07:16:00,53.1,52.0,30.23,WSW,246,0.0,-999.0,94,-99.99,,,0.00,weatherlink.com 1.10,2013-09-27 11:16:00,
2013-09-27 07:31:00,53.2,52.0,30.24,WSW,246,0.0,-999.0,94,-99.99,,,0.00,weatherlink.com 1.10,2013-09-27 11:31:00,
2013-09-27 07:46:00,53.5,52.0,30.24,WSW,246,0.0,-999.0,94,-99.99,,,0.00,weatherlink.com 1.10,2013-09-27 11:46:00,
2013-09-27 08:01:00,53.7,52.0,30.25,WSW,246,0.0,-999.0,93,-99.99,,,0.00,weatherlink.com 1.10,2013-09-27 12:01:00,
2013-09-27 08:17:00,54.1,53.0,30.25,WSW,246,0.0,-999.0,94,-99.99,,,0.00,weatherlink.com 1.10,2013-09-27 12:17:00,
2013-09-27 08:32:00,54.4,53.0,30.25,WSW,246,0.0,-999.0,93,-99.99,,,0.00,weatherlink.com 1.10,2013-09-27 12:32:00,
2013-09-27 08:47:00,54.9,53.0,30.26,WSW,246,0.0,-999.0,93,-99.99,,,0.00,weatherlink.com 1.10,2013-09-27 12:47:00,
2013-09-27 09:02:00,55.3,53.0,30.26,WSW,246,0.0,-999.0,92,-99.99,,,0.00,weatherlink.com 1.10,2013-09-27 13:02:00,
2013-09-27 09:17:00,55.6,53.0,30.26,WSW,246,0.0,-999.0,91,-99.99,,,0.00,weatherlink.com 1.10,2013-09-27 13:17:00,
2013-09-27 09:32:00,56.1,53.0,30.27,WSW,246,0.0,-999.0,90,-99.99,,,0.00,weatherlink.com 1.10,2013-09-27 13:32:00,
2013-09-27 09:47:00,56.6,54.0,30.27,WSW,246,0.0,-999.0,89,-99.99,,,0.00,weatherlink.com 1.10,2013-09-27 13:47:00,
2013-09-27 10:02:00,57.1,54.0,30.27,WSW,246,0.0,-999.0,89,-99.99,,,0.00,weatherlink.com 1.10,2013-09-27 14:02:00,
2013-09-27 10:17:00,57.7,54.0,30.27,WSW,246,0.0,-999.0,87,-99.99,,,0.00,weatherlink.com 1.10,2013-09-27 14:17:00,
2013-09-27 10:32:00,58.9,54.0,30.27,WSW,246,1.0,-999.0,85,-99.99,,,0.00,weatherlink.com 1.10,2013-09-27 14:32:00,
2013-09-27 10:47:00,60.3,55.0,30.27,WSW,246,0.0,-999.0,82,-99.99,,,0.00,weatherlink.com 1.10,2013-09-27 14:47:00,
2013-09-27 11:02:00,61.6,55.0,30.27,WSW,246,0.0,-999.0,78,-99.99,,,0.00,weatherlink.com 1.10,2013-09-27 15:02:00,
2013-09-27 11:17:00,63.2,56.0,30.27,WSW,239,0.0,-999.0,76,-99.99,,,0.00,weatherlink.com 1.10,2013-09-27 15:17:00,
2013-09-27 11:32:00,64.0,56.0,30.27,ESE,118,0.0,-999.0,74,-99.99,,,0.00,weatherlink.com 1.10,2013-09-27 15:32:00,
2013-09-27 11:47:00,64.4,55.0,30.27,SSE,168,0.0,-999.0,71,-99.99,,,0.00,weatherlink.com 1.10,2013-09-27 15:47:00,
2013-09-27 12:02:00,64.7,55.0,30.27,WNW,282,0.0,-999.0,70,-99.99,,,0.00,weatherlink.com 1.10,2013-09-27 16:02:00,
2013-09-27 12:17:00,65.1,55.0,30.27,SSW,192,0.0,-999.0,70,-99.99,,,0.00,weatherlink.com 1.10,2013-09-27 16:17:00,
2013-09-27 12:32:00,65.6,55.0,30.27,SE,130,0.0,-999.0,68,-99.99,,,0.00,weatherlink.com 1.10,2013-09-27 16:32:00,
2013-09-27 12:47:00,64.8,55.0,30.26,SSE,164,1.0,-999.0,70,-99.99,,,0.00,weatherlink.com 1.10,2013-09-27 16:47:00,
2013-09-27 13:02:00,65.3,54.0,30.26,SW,217,0.0,-999.0,68,-99.99,,,0.00,weatherlink.com 1.10,2013-09-27 17:02:00,
2013-09-27 13:17:00,65.0,55.0,30.26,SW,223,0.0,-999.0,69,-99.99,,,0.00,weatherlink.com 1.10,2013-09-27 17:17:00,
2013-09-27 13:32:00,64.8,54.0,30.26,SSW,208,0.0,-999.0,69,-99.99,,,0.00,weatherlink.com 1.10,2013-09-27 17:32:00,
2013-09-27 13:47:00,65.3,55.0,30.26,SSW,208,0.0,-999.0,70,-99.99,,,0.00,weatherlink.com 1.10,2013-09-27 17:47:00,
2013-09-27 14:02:00,64.8,55.0,30.25,SSE,162,0.0,-999.0,70,-99.99,,,0.00,weatherlink.com 1.10,2013-09-27 18:02:00,
2013-09-27 14:17:00,65.0,55.0,30.25,South,172,0.0,-999.0,71,-99.99,,,0.00,weatherlink.com 1.10,2013-09-27 18:17:00,
2013-09-27 14:32:00,65.4,55.0,30.25,ENE,58,0.0,-999.0,68,-99.99,,,0.00,weatherlink.com 1.10,2013-09-27 18:32:00,
2013-09-27 14:47:00,65.1,55.0,30.25,ESE,106,0.0,-999.0,70,-99.99,,,0.00,weatherlink.com 1.10,2013-09-27 18:47:00,
2013-09-27 15:02:00,64.7,55.0,30.25,South,172,0.0,-999.0,71,-99.99,,,0.00,weatherlink.com 1.10,2013-09-27 19:02:00,
2013-09-27 15:17:00,64.1,55.0,30.25,South,172,0.0,-999.0,72,-99.99,,,0.00,weatherlink.com 1.10,2013-09-27 19:17:00,
2013-09-27 15:32:00,64.2,55.0,30.25,South,172,0.0,-999.0,71,-99.99,,,0.00,weatherlink.com 1.10,2013-09-27 19:32:00,
2013-09-27 15:47:00,64.6,55.0,30.25,South,172,0.0,-999.0,70,-99.99,,,0.00,weatherlink.com 1.10,2013-09-27 19:47:00,
2013-09-27 16:02:00,64.3,56.0,30.24,South,172,0.0,-999.0,74,-99.99,,,0.00,weatherlink.com 1.10,2013-09-27 20:02:00,
2013-09-27 16:17:00,64.2,55.0,30.24,South,172,0.0,-999.0,73,-99.99,,,0.00,weatherlink.com 1.10,2013-09-27 20:17:00,
2013-09-27 16:32:00,63.8,55.0,30.24,South,173,0.0,-999.0,72,-99.99,,,0.00,weatherlink.com 1.10,2013-09-27 20:32:00,
2013-09-27 16:47:00,63.2,55.0,30.24,South,173,0.0,-999.0,75,-99.99,,,0.00,weatherlink.com 1.10,2013-09-27 20:47:00,
2013-09-27 17:02:00,63.2,56.0,30.24,South,173,0.0,-999.0,76,-99.99,,,0.00,weatherlink.com 1.10,2013-09-27 21:02:00,
2013-09-27 17:17:00,62.8,55.0,30.25,South,173,0.0,-999.0,76,-99.99,,,0.00,weatherlink.com 1.10,2013-09-27 21:17:00,
2013-09-27 17:32:00,61.8,55.0,30.25,South,173,0.0,-999.0,79,-99.99,,,0.00,weatherlink.com 1.10,2013-09-27 21:32:00,
2013-09-27 17:47:00,60.6,55.0,30.25,South,173,0.0,-999.0,83,-99.99,,,0.00,weatherlink.com 1.10,2013-09-27 21:47:00,
2013-09-27 18:02:00,59.6,56.0,30.25,South,173,0.0,-999.0,86,-99.99,,,0.00,weatherlink.com 1.10,2013-09-27 22:02:00,
2013-09-27 18:17:00,59.0,56.0,30.25,South,173,0.0,-999.0,89,-99.99,,,0.00,weatherlink.com 1.10,2013-09-27 22:17:00,
2013-09-27 18:32:00,57.9,54.0,30.26,South,173,0.0,-999.0,88,-99.99,,,0.00,weatherlink.com 1.10,2013-09-27 22:32:00,
2013-09-27 18:47:00,56.7,54.0,30.26,South,173,0.0,-999.0,89,-99.99,,,0.00,weatherlink.com 1.10,2013-09-27 22:47:00,
2013-09-27 19:02:00,55.7,53.0,30.26,South,173,0.0,-999.0,90,-99.99,,,0.00,weatherlink.com 1.10,2013-09-27 23:02:00,
2013-09-27 19:17:00,54.8,52.0,30.26,South,173,0.0,-999.0,90,-99.99,,,0.00,weatherlink.com 1.10,2013-09-27 23:17:00,
2013-09-27 19:32:00,53.9,51.0,30.27,South,173,0.0,-999.0,91,-99.99,,,0.00,weatherlink.com 1.10,2013-09-27 23:32:00,
2013-09-27 19:47:00,53.2,51.0,30.27,South,173,0.0,-999.0,92,-99.99,,,0.00,weatherlink.com 1.10,2013-09-27 23:47:00,
2013-09-27 20:02:00,52.4,50.0,30.27,South,173,0.0,-999.0,92,-99.99,,,0.00,weatherlink.com 1.10,2013-09-28 00:02:00,
2013-09-27 20:17:00,51.7,50.0,30.27,South,173,0.0,-999.0,93,-99.99,,,0.00,weatherlink.com 1.10,2013-09-28 00:17:00,
2013-09-27 20:33:00,51.1,49.0,30.28,South,173,0.0,-999.0,93,-99.99,,,0.00,weatherlink.com 1.10,2013-09-28 00:33:00,
2013-09-27 20:48:00,50.6,49.0,30.27,South,173,0.0,-999.0,93,-99.99,,,0.00,weatherlink.com 1.10,2013-09-28 00:48:00,
2013-09-27 21:03:00,50.1,49.0,30.28,South,173,0.0,-999.0,94,-99.99,,,0.00,weatherlink.com 1.10,2013-09-28 01:03:00,
2013-09-27 21:18:00,49.6,48.0,30.28,South,173,0.0,-999.0,94,-99.99,,,0.00,weatherlink.com 1.10,2013-09-28 01:18:00,
2013-09-27 21:33:00,49.2,48.0,30.29,South,173,0.0,-999.0,94,-99.99,,,0.00,weatherlink.com 1.10,2013-09-28 01:33:00,
2013-09-27 21:48:00,48.8,48.0,30.29,South,173,0.0,-999.0,95,-99.99,,,0.00,weatherlink.com 1.10,2013-09-28 01:48:00,
2013-09-27 22:03:00,48.5,47.0,30.29,South,173,0.0,-999.0,95,-99.99,,,0.00,weatherlink.com 1.10,2013-09-28 02:03:00,
2013-09-27 22:18:00,48.2,47.0,30.30,South,173,0.0,-999.0,95,-99.99,,,0.00,weatherlink.com 1.10,2013-09-28 02:18:00,
2013-09-27 22:33:00,48.0,47.0,30.30,South,173,0.0,-999.0,95,-99.99,,,0.00,weatherlink.com 1.10,2013-09-28 02:33:00,
2013-09-27 22:48:00,47.7,46.0,30.30,South,173,0.0,-999.0,95,-99.99,,,0.00,weatherlink.com 1.10,2013-09-28 02:48:00,
2013-09-27 23:03:00,47.6,46.0,30.30,South,173,0.0,-999.0,95,-99.99,,,0.00,weatherlink.com 1.10,2013-09-28 03:03:00,
2013-09-27 23:33:00,47.0,46.0,30.30,South,173,0.0,-999.0,95,-99.99,,,0.00,weatherlink.com 1.10,2013-09-28 03:33:00,
2013-09-27 23:48:00,46.9,46.0,30.30,South,173,0.0,-999.0,96,-99.99,,,0.00,weatherlink.com 1.10,2013-09-28 03:48:00,